Portada
METAR-TAF:

METAR-TAF

Aeroports :

Valladolid, Espanya

latitud: 41-43N, longitud: 004-51W, altitud: 849 m

Observació

L'informe es va fer fa 16 minuts, a les 07:00 UTC
Vent 8 kt del Nord
Temperatura 20°C
Humitat 56%
Pressió 1017 hPa
Visibilitat 10 km o més
sense núvols per sota de 1500 mi sense presència de cumulonimbus.

METAR: LEVD 200700Z 36008KT CAVOK 20/11 Q1017

Hora: 09:16 (07:16 UTC)

Pronòstic

L'informe es va fer fa 2 hores i 16 minuts, a les 05:00 UTC
Pronòstic vàlid del 20 a les 06 UTC al 21 a les 06 UTC
Vent 5 kt amb direcció variable
Visibilitat 10 km o més
sense núvols per sota de 1500 mi sense presència de cumulonimbus.
Evolucionant progressivament
l' 20 a les 12 UTC al 20 a les 14 UTC
Vent 10 kt del Oest
Evolucionant progressivament
l' 20 a les 21 UTC al 20 a les 23 UTC
Vent 10 kt del Nord-Est

TAF: LEVD 200500Z 2006/2106 VRB05KT CAVOK TX34/2015Z TN15/2105Z BECMG 2012/2014 27010KT BECMG 2021/2023 04010KT

Observacions i pronòstics meteorològics de més de 4000 aeroports (METAR i TAF).

Les estacions disponibles són els punts grocs i vermells al mapa.

Posi el ratolí al punt desitjat per veure el nom de l'estació.

Feu clic per veure les observacions i els pronòstics meteorològics.

Per canviar el mapa: feu clic els botons verds amb una creu de color negre per apropar; al botó verd amb un guió per allunyar la imatge; o en les fletxes verdes per a mapes adjacents.


METAR-TAF: